Time;durP1;ratioP1;P1;durP2;ratioP2;P2;SDS_P1;SDS_P2;PMS_P1;PMS_P2;Temp;Humidity;BMP_temperature;BMP_pressure;BME280_temperature;BME280_humidity;BME280_pressure;Samples;Min_cycle;Max_cycle;Signal;HPM_P1;HPM_P2
2024/01/15 00:00:10;;;;;;;2.15;1.00;;;1.50;99.90;;;;;;5032058;28;20088;-64
2024/01/15 00:02:35;;;;;;;1.52;1.25;;;1.50;99.90;;;;;;5014507;28;20087;-64
2024/01/15 00:05:01;;;;;;;6.38;1.58;;;1.50;99.90;;;;;;5032324;28;20045;-65
2024/01/15 00:07:26;;;;;;;4.00;1.52;;;1.80;99.90;;;;;;5032063;28;20041;-64
2024/01/15 00:09:52;;;;;;;3.20;1.15;;;1.50;99.90;;;;;;5014347;28;20041;-64
2024/01/15 00:12:17;;;;;;;4.13;2.15;;;1.60;99.90;;;;;;5014230;28;20041;-64
2024/01/15 00:14:43;;;;;;;1.63;1.05;;;1.60;99.90;;;;;;5014054;28;20068;-64
2024/01/15 00:17:09;;;;;;;1.13;1.02;;;1.60;99.90;;;;;;5032052;28;20045;-63
2024/01/15 00:19:34;;;;;;;1.13;1.02;;;1.70;99.90;;;;;;5031841;28;20037;-64
2024/01/15 00:22:00;;;;;;;1.65;1.00;;;1.70;99.90;;;;;;5032031;28;20048;-64
2024/01/15 00:24:25;;;;;;;2.08;1.48;;;1.80;99.90;;;;;;5032077;28;20478;-64
2024/01/15 00:26:51;;;;;;;1.95;1.40;;;1.90;99.90;;;;;;5032187;28;20500;-75
2024/01/15 00:29:17;;;;;;;2.80;1.23;;;1.90;99.90;;;;;;5032235;28;20129;-68
2024/01/15 00:31:42;;;;;;;1.40;1.00;;;2.00;99.90;;;;;;5031737;28;20127;-65
2024/01/15 00:34:14;;;;;;;3.13;1.60;;;1.90;99.90;;;;;;5031334;28;20191;-65
2024/01/15 00:36:40;;;;;;;3.28;1.20;;;1.90;99.90;;;;;;5034903;28;20117;-62
2024/01/15 00:39:05;;;;;;;2.40;1.10;;;1.90;99.90;;;;;;5035616;28;20120;-60
2024/01/15 00:41:31;;;;;;;2.13;1.05;;;1.90;99.90;;;;;;5017742;28;20037;-61
2024/01/15 00:43:57;;;;;;;1.08;0.90;;;1.80;99.90;;;;;;5017739;28;20059;-60
2024/01/15 00:46:23;;;;;;;1.60;1.08;;;1.70;99.90;;;;;;5017497;28;20073;-60
2024/01/15 00:48:48;;;;;;;1.23;0.77;;;1.90;99.90;;;;;;5017461;28;20041;-60
2024/01/15 00:51:14;;;;;;;1.33;0.80;;;1.70;99.90;;;;;;5017291;28;20468;-60
2024/01/15 00:53:40;;;;;;;0.63;0.63;;;1.70;99.90;;;;;;5017198;28;20045;-61
2024/01/15 00:56:05;;;;;;;1.58;0.90;;;1.70;99.90;;;;;;5017306;28;20045;-60
2024/01/15 00:58:31;;;;;;;1.80;0.90;;;1.50;99.90;;;;;;5035170;28;20495;-60
2024/01/15 01:00:57;;;;;;;2.70;1.52;;;1.40;99.90;;;;;;5034815;28;20049;-61
2024/01/15 01:03:22;;;;;;;3.92;1.33;;;1.40;99.90;;;;;;5017139;28;20051;-62
2024/01/15 01:05:51;;;;;;;1.50;1.17;;;1.40;99.90;;;;;;5034845;28;20496;-60
2024/01/15 01:08:17;;;;;;;2.20;1.20;;;1.30;99.90;;;;;;5017073;28;20053;-60
2024/01/15 01:10:42;;;;;;;2.08;1.27;;;1.30;99.90;;;;;;5000638;28;20052;-60
2024/01/15 01:13:09;;;;;;;0.80;0.80;;;1.40;99.90;;;;;;5034588;28;20064;-60
2024/01/15 01:15:34;;;;;;;1.13;0.90;;;1.30;99.90;;;;;;5035032;28;20505;-65
2024/01/15 01:18:00;;;;;;;2.88;1.25;;;1.30;99.90;;;;;;5034831;28;20034;-64
2024/01/15 01:20:26;;;;;;;1.80;1.10;;;1.20;99.90;;;;;;5017035;28;20041;-65
2024/01/15 01:22:51;;;;;;;2.10;1.08;;;1.20;99.90;;;;;;5016947;28;20053;-64
2024/01/15 01:25:17;;;;;;;2.67;1.25;;;1.20;99.90;;;;;;5034682;28;20047;-65
2024/01/15 01:27:43;;;;;;;2.42;1.33;;;1.10;99.90;;;;;;5034339;28;20046;-65
2024/01/15 01:30:09;;;;;;;2.70;1.25;;;1.20;99.90;;;;;;5034255;28;20075;-65
2024/01/15 01:32:35;;;;;;;2.38;1.30;;;1.10;99.90;;;;;;5015981;28;20052;-65
2024/01/15 01:35:08;;;;;;;2.35;1.20;;;1.20;99.90;;;;;;5034526;28;20096;-65
2024/01/15 01:37:34;;;;;;;2.33;1.80;;;1.20;99.90;;;;;;5034452;28;20047;-65
2024/01/15 01:40:00;;;;;;;2.25;1.13;;;1.20;99.90;;;;;;5000336;28;20120;-65
2024/01/15 01:42:26;;;;;;;2.45;1.10;;;1.20;99.90;;;;;;5034036;28;20034;-65
2024/01/15 01:44:51;;;;;;;2.22;1.15;;;1.20;99.90;;;;;;5034002;28;20045;-65
2024/01/15 01:47:18;;;;;;;2.28;1.05;;;1.70;99.90;;;;;;5015559;28;20057;-61
2024/01/15 01:49:44;;;;;;;4.15;1.20;;;1.20;99.90;;;;;;5034233;28;20061;-60
2024/01/15 01:52:10;;;;;;;2.85;1.20;;;1.30;99.90;;;;;;5016138;28;20080;-61
2024/01/15 01:54:37;;;;;;;1.98;1.25;;;1.40;99.90;;;;;;5033813;28;20052;-61
2024/01/15 01:57:04;;;;;;;3.10;1.25;;;1.40;99.90;;;;;;5016179;28;20122;-60
2024/01/15 01:59:31;;;;;;;0.98;0.80;;;1.50;99.90;;;;;;5033791;28;20088;-61
2024/01/15 02:01:58;;;;;;;4.72;1.48;;;1.40;99.90;;;;;;5033800;28;20042;-61
2024/01/15 02:04:25;;;;;;;2.47;1.00;;;1.50;99.90;;;;;;5033736;28;20053;-60
2024/01/15 02:06:51;;;;;;;3.13;1.52;;;1.50;99.90;;;;;;5033830;28;20045;-60
2024/01/15 02:09:17;;;;;;;4.03;0.90;;;1.50;99.90;;;;;;5016240;28;20049;-61
2024/01/15 02:11:46;;;;;;;1.50;0.98;;;1.50;99.90;;;;;;5015824;28;20041;-60
2024/01/15 02:14:11;;;;;;;1.00;0.90;;;1.50;99.90;;;;;;5015681;28;20041;-61
2024/01/15 02:16:37;;;;;;;1.75;0.98;;;1.70;99.90;;;;;;5015662;28;20046;-60
2024/01/15 02:19:03;;;;;;;1.35;0.90;;;1.40;99.90;;;;;;5015518;28;20448;-60
2024/01/15 02:21:28;;;;;;;2.20;1.30;;;1.50;99.90;;;;;;5033610;28;20049;-61
2024/01/15 02:23:58;;;;;;;1.65;0.90;;;1.40;99.90;;;;;;5033510;28;20489;-60
2024/01/15 02:26:23;;;;;;;1.30;0.80;;;1.50;99.90;;;;;;5015819;28;20041;-60
2024/01/15 02:28:51;;;;;;;2.33;1.10;;;1.40;99.90;;;;;;5015457;28;20041;-60
2024/01/15 02:31:17;;;;;;;0.75;0.75;;;1.50;99.90;;;;;;5033435;28;20045;-60
2024/01/15 02:33:56;;;;;;;0.70;0.70;;;1.50;99.90;;;;;;5014938;28;20520;-60
2024/01/15 02:36:28;;;;;;;1.08;0.70;;;2.00;99.90;;;;;;5033278;28;20191;-65
2024/01/15 02:38:54;;;;;;;0.90;0.80;;;1.50;99.90;;;;;;5033067;28;20536;-65
2024/01/15 02:41:20;;;;;;;2.20;1.20;;;1.50;99.90;;;;;;5033216;28;20172;-65
2024/01/15 02:43:45;;;;;;;0.63;0.63;;;1.50;99.90;;;;;;5015299;28;20041;-65
2024/01/15 02:46:11;;;;;;;2.35;1.00;;;1.50;99.90;;;;;;5032949;28;20072;-65
2024/01/15 02:48:36;;;;;;;2.70;1.23;;;1.50;99.90;;;;;;5033108;28;20505;-65
2024/01/15 02:51:02;;;;;;;1.48;1.00;;;1.50;99.90;;;;;;5033114;28;20083;-65
2024/01/15 02:53:28;;;;;;;1.85;1.05;;;1.50;99.90;;;;;;5032976;28;20037;-65
2024/01/15 02:55:53;;;;;;;3.35;1.10;;;1.60;99.90;;;;;;5032967;28;20038;-65
2024/01/15 02:58:19;;;;;;;1.15;0.75;;;1.60;99.90;;;;;;5032787;28;20079;-65
2024/01/15 03:00:46;;;;;;;1.52;0.93;;;1.70;99.90;;;;;;5032998;28;20077;-65
2024/01/15 03:03:12;;;;;;;1.73;1.10;;;1.70;99.90;;;;;;5014865;28;20462;-65
2024/01/15 03:05:37;;;;;;;5.15;1.40;;;1.70;99.90;;;;;;5032501;28;20084;-65
2024/01/15 03:08:03;;;;;;;2.30;1.10;;;1.80;99.90;;;;;;5032744;28;20072;-65
2024/01/15 03:10:29;;;;;;;1.60;1.15;;;1.80;99.90;;;;;;5014973;28;20124;-65
2024/01/15 03:12:54;;;;;;;2.33;1.25;;;1.70;99.90;;;;;;5032463;28;20045;-65
2024/01/15 03:15:20;;;;;;;2.33;1.30;;;1.70;99.90;;;;;;5032678;28;20036;-65
2024/01/15 03:17:46;;;;;;;2.63;1.13;;;1.70;99.90;;;;;;5014794;28;20442;-65
2024/01/15 03:20:12;;;;;;;3.72;1.58;;;1.70;99.90;;;;;;5014702;28;20438;-65
2024/01/15 03:22:37;;;;;;;1.67;1.00;;;1.70;99.90;;;;;;5032552;28;20038;-66
2024/01/15 03:25:04;;;;;;;2.80;1.35;;;1.70;99.90;;;;;;5032552;28;20429;-65
2024/01/15 03:27:30;;;;;;;3.03;1.75;;;1.70;99.90;;;;;;5014726;28;20038;-64
2024/01/15 03:29:55;;;;;;;2.03;1.15;;;1.80;99.90;;;;;;5032234;28;20099;-64
2024/01/15 03:32:21;;;;;;;4.28;1.77;;;1.80;99.90;;;;;;5032459;28;20041;-64
2024/01/15 03:34:53;;;;;;;3.78;1.40;;;1.80;99.90;;;;;;5031823;28;20429;-64
2024/01/15 03:37:19;;;;;;;3.67;1.52;;;1.70;99.90;;;;;;5032470;28;20509;-67
2024/01/15 03:39:45;;;;;;;1.80;1.20;;;1.70;99.90;;;;;;5032220;28;20117;-64
2024/01/15 03:42:11;;;;;;;3.83;1.50;;;1.70;99.90;;;;;;5032358;28;20148;-64
2024/01/15 03:44:37;;;;;;;4.93;1.38;;;1.60;99.90;;;;;;5032130;28;20668;-64
2024/01/15 03:47:02;;;;;;;2.30;1.63;;;1.60;99.90;;;;;;5032019;28;20079;-64
2024/01/15 03:49:28;;;;;;;2.88;1.80;;;1.70;99.90;;;;;;5032327;28;20128;-64
2024/01/15 03:51:53;;;;;;;2.25;1.10;;;1.70;99.90;;;;;;5032307;28;20449;-64
2024/01/15 03:54:19;;;;;;;5.95;1.65;;;1.70;99.90;;;;;;5031954;28;20408;-64
2024/01/15 03:56:45;;;;;;;3.70;1.52;;;1.60;99.90;;;;;;5032421;28;20045;-65
2024/01/15 03:59:10;;;;;;;2.83;1.27;;;1.60;99.90;;;;;;5031964;28;20037;-65
2024/01/15 04:01:36;;;;;;;3.50;1.70;;;1.70;99.90;;;;;;5032240;28;20042;-65
2024/01/15 04:04:01;;;;;;;3.80;1.52;;;1.60;99.90;;;;;;5032169;28;20191;-65
2024/01/15 04:06:27;;;;;;;2.03;1.10;;;1.60;99.90;;;;;;5032246;28;20038;-64
2024/01/15 04:08:53;;;;;;;3.25;1.48;;;1.70;99.90;;;;;;5031836;28;20069;-65
2024/01/15 04:11:18;;;;;;;4.10;1.25;;;1.60;99.90;;;;;;5016402;28;20579;-64
2024/01/15 04:13:44;;;;;;;2.50;1.50;;;1.60;99.90;;;;;;5035719;28;20041;-65
2024/01/15 04:16:09;;;;;;;3.42;1.38;;;1.70;99.90;;;;;;5035889;28;20072;-65
2024/01/15 04:18:35;;;;;;;2.85;1.23;;;1.80;99.90;;;;;;5035913;28;20116;-65
2024/01/15 04:21:03;;;;;;;3.45;1.50;;;1.80;99.90;;;;;;5017773;28;20060;-64
2024/01/15 04:23:29;;;;;;;4.00;1.35;;;1.90;99.90;;;;;;5035894;28;20397;-64
2024/01/15 04:25:54;;;;;;;4.22;1.48;;;2.30;99.90;;;;;;5035801;28;20167;-64
2024/01/15 04:28:20;;;;;;;3.67;1.42;;;1.90;99.90;;;;;;5035460;28;20124;-65
2024/01/15 04:30:45;;;;;;;1.65;1.13;;;2.00;99.90;;;;;;5035496;28;20171;-64
2024/01/15 04:33:18;;;;;;;1.08;0.90;;;2.00;99.90;;;;;;5017254;28;20136;-64
2024/01/15 04:36:02;;;;;;;2.90;1.00;;;2.00;99.90;;;;;;5035293;28;20060;-64
2024/01/15 04:38:27;;;;;;;2.58;1.08;;;2.00;99.90;;;;;;5035630;28;20034;-60
2024/01/15 04:40:53;;;;;;;1.95;1.20;;;2.00;99.90;;;;;;5035496;28;20474;-60
2024/01/15 04:43:19;;;;;;;2.13;1.33;;;2.00;99.90;;;;;;5035249;28;20436;-60
2024/01/15 04:45:44;;;;;;;2.30;1.73;;;1.90;99.90;;;;;;5017639;28;20053;-60
2024/01/15 04:48:10;;;;;;;0.70;0.70;;;1.90;99.90;;;;;;5035464;28;20041;-60
2024/01/15 04:50:36;;;;;;;1.33;0.93;;;1.80;99.90;;;;;;5035323;28;20069;-60
2024/01/15 04:53:01;;;;;;;0.98;0.70;;;1.60;99.90;;;;;;5017333;28;20049;-61
2024/01/15 04:55:27;;;;;;;1.45;0.82;;;1.50;99.90;;;;;;5035044;28;20030;-60
2024/01/15 04:57:52;;;;;;;0.93;0.70;;;1.40;99.90;;;;;;5035185;28;20469;-60
2024/01/15 05:00:19;;;;;;;1.13;0.70;;;1.30;99.90;;;;;;5035230;28;20500;-60
2024/01/15 05:02:45;;;;;;;2.80;1.10;;;1.30;99.90;;;;;;5034849;28;20464;-60
2024/01/15 05:05:10;;;;;;;2.80;1.45;;;1.20;99.90;;;;;;5035071;28;20124;-60
2024/01/15 05:07:36;;;;;;;1.25;0.90;;;1.20;99.90;;;;;;5035252;28;20069;-60
2024/01/15 05:10:02;;;;;;;1.17;0.60;;;1.20;99.90;;;;;;5034669;28;20045;-60
2024/01/15 05:12:27;;;;;;;1.25;0.95;;;1.10;99.90;;;;;;5017034;28;20112;-60
2024/01/15 05:14:53;;;;;;;1.25;0.80;;;1.00;99.90;;;;;;5016766;28;20049;-60
2024/01/15 05:17:19;;;;;;;1.10;0.80;;;1.00;99.90;;;;;;5034758;28;20048;-60
2024/01/15 05:19:44;;;;;;;1.00;0.68;;;1.00;99.90;;;;;;5034785;28;20037;-60
2024/01/15 05:22:10;;;;;;;0.80;0.73;;;1.00;99.90;;;;;;5033178;28;20038;-60
2024/01/15 05:24:35;;;;;;;3.85;1.17;;;1.00;99.90;;;;;;5016634;28;20148;-60
2024/01/15 05:27:01;;;;;;;0.90;0.70;;;1.00;99.90;;;;;;5034435;28;20437;-61
2024/01/15 05:29:27;;;;;;;1.15;0.80;;;0.90;99.90;;;;;;5034665;28;20061;-60
2024/01/15 05:31:52;;;;;;;2.30;0.93;;;1.00;99.90;;;;;;5034597;28;20499;-61
2024/01/15 05:34:25;;;;;;;0.73;0.73;;;1.00;99.90;;;;;;5033843;28;20075;-60
2024/01/15 05:36:50;;;;;;;0.80;0.80;;;1.00;99.90;;;;;;5034363;28;20045;-60
2024/01/15 05:39:16;;;;;;;1.40;0.80;;;1.00;99.90;;;;;;5034383;28;20409;-60
2024/01/15 05:41:42;;;;;;;1.50;0.95;;;1.10;99.90;;;;;;5016323;28;20037;-60
2024/01/15 05:44:07;;;;;;;1.92;1.02;;;1.10;99.90;;;;;;5034132;28;20048;-60
2024/01/15 05:46:33;;;;;;;4.03;1.08;;;1.10;99.90;;;;;;5034264;28;20041;-60
2024/01/15 05:48:59;;;;;;;1.10;0.75;;;1.20;99.90;;;;;;5016365;28;20045;-63
2024/01/15 05:51:24;;;;;;;1.73;1.10;;;1.30;99.90;;;;;;5033836;28;20038;-63
2024/01/15 05:53:50;;;;;;;0.85;0.85;;;1.30;99.90;;;;;;5015964;28;20073;-63
2024/01/15 05:56:16;;;;;;;1.77;1.20;;;1.30;99.90;;;;;;5033870;28;20103;-63
2024/01/15 05:58:41;;;;;;;3.13;1.15;;;1.30;99.90;;;;;;5033691;28;20033;-63
2024/01/15 06:01:07;;;;;;;1.35;1.08;;;1.30;99.90;;;;;;5033737;28;20035;-63
2024/01/15 06:03:33;;;;;;;1.80;1.02;;;1.30;99.90;;;;;;5015991;28;20477;-64
2024/01/15 06:05:58;;;;;;;2.45;0.90;;;1.30;99.90;;;;;;5033750;28;20120;-64
2024/01/15 06:08:26;;;;;;;1.38;1.00;;;1.30;99.90;;;;;;5033767;28;20087;-64
2024/01/15 06:10:52;;;;;;;2.38;1.10;;;1.20;99.90;;;;;;5033537;28;20086;-63
2024/01/15 06:13:17;;;;;;;1.13;0.80;;;1.20;99.90;;;;;;5033686;28;20045;-63
2024/01/15 06:15:43;;;;;;;2.70;1.20;;;1.10;99.90;;;;;;5015771;28;20038;-63
2024/01/15 06:18:09;;;;;;;2.20;1.00;;;1.10;99.90;;;;;;5033943;28;20033;-59
2024/01/15 06:20:34;;;;;;;1.05;0.88;;;1.10;99.90;;;;;;5016321;28;20053;-59
2024/01/15 06:23:00;;;;;;;2.05;1.10;;;1.00;99.90;;;;;;5016091;28;20045;-60
2024/01/15 06:25:25;;;;;;;2.25;0.75;;;1.10;99.90;;;;;;5015642;28;20048;-60
2024/01/15 06:27:51;;;;;;;1.23;0.98;;;1.00;99.90;;;;;;4999280;28;20061;-60
2024/01/15 06:30:17;;;;;;;1.15;1.00;;;1.10;99.90;;;;;;5016049;28;20497;-61
2024/01/15 06:32:42;;;;;;;2.22;1.30;;;1.10;99.90;;;;;;5033060;28;20041;-60
2024/01/15 06:35:10;;;;;;;2.38;1.13;;;1.10;99.90;;;;;;5014979;28;20053;-59
2024/01/15 06:37:42;;;;;;;1.90;1.05;;;1.30;99.90;;;;;;5015353;28;20460;-60
2024/01/15 06:40:08;;;;;;;4.55;1.45;;;1.20;99.90;;;;;;5015411;28;20033;-59
2024/01/15 06:42:34;;;;;;;3.10;1.25;;;1.10;99.90;;;;;;5033048;28;20044;-58
2024/01/15 06:45:00;;;;;;;1.10;1.00;;;1.20;99.90;;;;;;5015335;28;20046;-60
2024/01/15 06:47:25;;;;;;;1.60;0.95;;;1.20;99.90;;;;;;5032949;28;20374;-60
2024/01/15 06:49:52;;;;;;;2.33;1.35;;;1.20;99.90;;;;;;5015155;28;20473;-59
2024/01/15 06:52:17;;;;;;;3.47;1.63;;;1.80;99.90;;;;;;5032890;28;20489;-59
2024/01/15 06:54:43;;;;;;;2.40;1.30;;;1.20;99.90;;;;;;5032993;28;20048;-60
2024/01/15 06:57:09;;;;;;;1.88;1.10;;;1.20;99.90;;;;;;5032756;28;20048;-59
2024/01/15 06:59:37;;;;;;;2.08;1.08;;;1.20;99.90;;;;;;5033087;28;20037;-59
2024/01/15 07:02:03;;;;;;;1.92;1.30;;;1.10;99.90;;;;;;5015213;28;20048;-63
2024/01/15 07:04:28;;;;;;;2.80;1.35;;;1.20;99.90;;;;;;5032863;28;20540;-62
2024/01/15 07:06:54;;;;;;;2.63;1.35;;;1.10;99.90;;;;;;5032474;28;20049;-62
2024/01/15 07:09:20;;;;;;;1.83;1.15;;;1.10;99.90;;;;;;5032900;28;20041;-62
2024/01/15 07:11:48;;;;;;;3.20;1.55;;;1.10;99.90;;;;;;5032517;28;20029;-62
2024/01/15 07:14:14;;;;;;;3.75;1.35;;;1.10;99.90;;;;;;5032718;28;20045;-63
2024/01/15 07:16:39;;;;;;;3.88;1.70;;;1.10;99.90;;;;;;5014726;28;20482;-63
2024/01/15 07:19:06;;;;;;;2.63;1.27;;;1.10;99.90;;;;;;5014705;28;20568;-64
2024/01/15 07:21:31;;;;;;;2.70;1.20;;;1.10;99.90;;;;;;5032560;28;20048;-65
2024/01/15 07:23:57;;;;;;;2.97;1.50;;;1.10;99.90;;;;;;5032742;28;20037;-64
2024/01/15 07:26:22;;;;;;;3.15;1.52;;;1.10;99.90;;;;;;5032666;28;20053;-64
2024/01/15 07:28:48;;;;;;;2.78;1.25;;;1.10;99.90;;;;;;5032384;28;20055;-60
2024/01/15 07:31:16;;;;;;;2.60;1.30;;;1.10;99.90;;;;;;5014645;28;20129;-61
2024/01/15 07:33:55;;;;;;;4.43;1.55;;;1.10;99.90;;;;;;5014218;28;20054;-60
2024/01/15 07:36:27;;;;;;;4.80;1.30;;;1.10;99.90;;;;;;5014531;28;20104;-61
2024/01/15 07:38:53;;;;;;;1.95;0.98;;;1.10;99.90;;;;;;5032394;28;20029;-60
2024/01/15 07:41:18;;;;;;;3.10;1.23;;;1.10;99.90;;;;;;5032532;28;20590;-60
2024/01/15 07:43:44;;;;;;;2.17;1.33;;;1.00;99.90;;;;;;5032249;28;20120;-70
2024/01/15 07:46:09;;;;;;;2.55;1.33;;;1.00;99.90;;;;;;5016545;28;20128;-70
2024/01/15 07:48:35;;;;;;;1.60;1.15;;;0.90;99.90;;;;;;5018490;28;20046;-70
2024/01/15 07:51:01;;;;;;;3.22;1.10;;;0.90;99.90;;;;;;5018564;28;20508;-71
2024/01/15 07:53:27;;;;;;;2.85;1.30;;;0.90;99.90;;;;;;5036214;28;20041;-69
2024/01/15 07:55:53;;;;;;;2.78;1.40;;;0.90;99.90;;;;;;5036618;28;20106;-71
2024/01/15 07:58:19;;;;;;;3.97;1.17;;;1.00;99.90;;;;;;5018424;28;20490;-71
2024/01/15 08:00:44;;;;;;;1.85;1.10;;;0.90;99.90;;;;;;5036423;28;20535;-71
2024/01/15 08:03:11;;;;;;;2.20;1.20;;;1.00;99.90;;;;;;5018430;28;20096;-71
2024/01/15 08:05:37;;;;;;;2.05;1.23;;;1.10;99.90;;;;;;5001930;28;20462;-70
2024/01/15 08:08:02;;;;;;;2.38;1.15;;;1.20;99.90;;;;;;5018235;28;20073;-64
2024/01/15 08:10:28;;;;;;;2.75;1.50;;;1.30;99.90;;;;;;5036091;28;20431;-65
2024/01/15 08:12:54;;;;;;;1.75;1.08;;;1.30;99.90;;;;;;5017938;28;20053;-66
2024/01/15 08:15:20;;;;;;;2.78;1.77;;;1.40;99.90;;;;;;5035735;28;20037;-65
2024/01/15 08:17:45;;;;;;;2.78;1.20;;;1.40;99.90;;;;;;5035865;28;20120;-65
2024/01/15 08:20:11;;;;;;;1.70;1.33;;;1.30;99.90;;;;;;5018228;28;20099;-64
2024/01/15 08:22:39;;;;;;;1.05;0.80;;;1.40;99.90;;;;;;5034398;28;20033;-64
2024/01/15 08:25:05;;;;;;;2.70;1.20;;;1.40;99.90;;;;;;5035593;28;20049;-64
2024/01/15 08:27:30;;;;;;;1.65;1.30;;;1.30;99.90;;;;;;5017765;28;20079;-65
2024/01/15 08:29:56;;;;;;;1.33;0.98;;;1.30;99.90;;;;;;5035736;28;20037;-66
2024/01/15 08:32:21;;;;;;;2.67;1.23;;;1.40;99.90;;;;;;5035466;28;20072;-65
2024/01/15 08:34:54;;;;;;;1.75;1.10;;;1.40;99.90;;;;;;5035083;28;20049;-65
2024/01/15 08:37:19;;;;;;;1.85;1.05;;;1.30;99.90;;;;;;5035369;28;20131;-66
2024/01/15 08:39:45;;;;;;;1.40;1.13;;;1.30;99.90;;;;;;5035767;28;20445;-65
2024/01/15 08:42:11;;;;;;;1.35;0.82;;;1.20;99.90;;;;;;5035584;28;20075;-64
2024/01/15 08:44:39;;;;;;;2.35;1.30;;;1.50;99.90;;;;;;5035582;28;20041;-64
2024/01/15 08:47:04;;;;;;;2.38;1.17;;;1.20;99.90;;;;;;5035479;28;20042;-65
2024/01/15 08:49:30;;;;;;;2.78;1.10;;;1.30;99.90;;;;;;5035147;28;20045;-65
2024/01/15 08:51:56;;;;;;;4.28;1.50;;;1.30;99.90;;;;;;5035415;28;20430;-64
2024/01/15 08:54:21;;;;;;;1.08;0.95;;;1.30;99.90;;;;;;5035218;28;20128;-61
2024/01/15 08:56:47;;;;;;;1.65;1.20;;;1.40;99.90;;;;;;5034871;28;20056;-62
2024/01/15 08:59:13;;;;;;;2.25;1.10;;;1.30;99.90;;;;;;5035180;28;20065;-63
2024/01/15 09:01:39;;;;;;;2.88;1.45;;;1.40;99.90;;;;;;5035066;28;20033;-63
2024/01/15 09:04:04;;;;;;;4.40;1.30;;;1.50;99.90;;;;;;5016932;28;20077;-61
2024/01/15 09:06:30;;;;;;;1.02;0.93;;;1.50;99.90;;;;;;5034823;28;20077;-61
2024/01/15 09:08:56;;;;;;;1.58;1.30;;;1.60;99.90;;;;;;5034615;28;20045;-63
2024/01/15 09:11:21;;;;;;;1.75;1.13;;;1.70;99.90;;;;;;5034828;28;20466;-63
2024/01/15 09:13:47;;;;;;;0.98;0.80;;;1.80;99.90;;;;;;5016795;28;20397;-63
2024/01/15 09:16:12;;;;;;;1.35;1.00;;;1.80;99.90;;;;;;5034384;28;20033;-63
2024/01/15 09:18:38;;;;;;;2.30;1.10;;;1.90;99.90;;;;;;5034852;28;20099;-59
2024/01/15 09:21:05;;;;;;;2.78;1.23;;;2.00;99.90;;;;;;5034623;28;20048;-60
2024/01/15 09:23:30;;;;;;;3.33;1.23;;;2.00;99.90;;;;;;5016481;28;20117;-59
2024/01/15 09:25:56;;;;;;;1.58;0.90;;;2.10;99.90;;;;;;5034604;28;20133;-59
2024/01/15 09:28:22;;;;;;;1.92;1.10;;;2.10;99.90;;;;;;5016472;28;20132;-60
2024/01/15 09:30:48;;;;;;;1.10;0.88;;;2.00;99.90;;;;;;5034479;28;20485;-59
2024/01/15 09:33:20;;;;;;;1.10;1.00;;;2.00;99.90;;;;;;5015903;28;20044;-59
2024/01/15 09:35:53;;;;;;;0.90;0.90;;;2.00;99.90;;;;;;5034326;28;20401;-59
2024/01/15 09:38:20;;;;;;;1.00;0.90;;;1.90;99.90;;;;;;5034051;28;20041;-60
2024/01/15 09:40:46;;;;;;;1.52;0.85;;;1.90;99.90;;;;;;5033984;28;20045;-59
2024/01/15 09:43:14;;;;;;;1.55;0.85;;;1.90;99.90;;;;;;5016259;28;20069;-59
2024/01/15 09:45:40;;;;;;;1.00;0.90;;;2.00;99.90;;;;;;5016187;28;20180;-59
2024/01/15 09:48:06;;;;;;;1.58;0.90;;;1.80;99.90;;;;;;5033937;28;20557;-59
2024/01/15 09:50:32;;;;;;;1.63;1.00;;;1.80;99.90;;;;;;5034246;28;20052;-63
2024/01/15 09:52:58;;;;;;;0.95;0.82;;;1.70;99.90;;;;;;5033949;28;20478;-63
2024/01/15 09:55:23;;;;;;;1.52;1.02;;;1.90;99.90;;;;;;5034248;28;20092;-62
2024/01/15 09:57:50;;;;;;;0.93;0.73;;;2.00;99.90;;;;;;5034127;28;20485;-63
2024/01/15 10:00:19;;;;;;;3.75;1.30;;;2.10;99.90;;;;;;5034062;28;20038;-63
2024/01/15 10:02:45;;;;;;;0.93;0.85;;;2.10;99.90;;;;;;5033976;28;20164;-62
2024/01/15 10:05:11;;;;;;;1.85;1.02;;;2.00;99.90;;;;;;5016202;28;20083;-63
2024/01/15 10:07:39;;;;;;;3.55;1.27;;;1.90;99.90;;;;;;5033575;28;20413;-63
2024/01/15 10:10:05;;;;;;;1.75;1.08;;;1.80;99.90;;;;;;5033552;28;20112;-62
2024/01/15 10:12:31;;;;;;;0.70;0.70;;;1.70;99.90;;;;;;5033863;28;20039;-62
2024/01/15 10:14:57;;;;;;;2.75;1.15;;;1.70;99.90;;;;;;5033514;28;20390;-62
2024/01/15 10:17:24;;;;;;;1.75;0.95;;;1.70;99.90;;;;;;5033513;28;20124;-62
2024/01/15 10:19:50;;;;;;;2.42;1.40;;;1.60;99.90;;;;;;5033519;28;20151;-62
2024/01/15 10:22:15;;;;;;;3.33;1.42;;;1.70;99.90;;;;;;5015653;28;20401;-62
2024/01/15 10:24:41;;;;;;;1.83;1.23;;;1.70;99.90;;;;;;5033362;28;20069;-62
2024/01/15 10:27:08;;;;;;;4.63;1.52;;;1.70;99.90;;;;;;5033585;28;20501;-62
2024/01/15 10:29:34;;;;;;;2.33;1.15;;;2.10;99.90;;;;;;5033691;28;20048;-62
2024/01/15 10:32:01;;;;;;;1.85;1.27;;;1.70;99.90;;;;;;5033260;28;20045;-59
2024/01/15 10:34:39;;;;;;;1.92;1.10;;;1.70;99.90;;;;;;5014993;28;20429;-61
2024/01/15 10:37:12;;;;;;;3.70;1.50;;;1.80;99.90;;;;;;5032996;28;20081;-59
2024/01/15 10:39:39;;;;;;;1.30;0.93;;;2.00;99.90;;;;;;5033141;28;20076;-65
2024/01/15 10:42:06;;;;;;;1.63;1.02;;;2.10;99.90;;;;;;5015418;28;20493;-59
2024/01/15 10:44:31;;;;;;;3.10;1.20;;;2.10;99.90;;;;;;5033251;28;20409;-60
2024/01/15 10:46:57;;;;;;;2.13;1.20;;;2.10;99.90;;;;;;4999233;28;20041;-59
2024/01/15 10:49:25;;;;;;;1.95;1.02;;;2.40;99.90;;;;;;5033162;28;20049;-59
2024/01/15 10:51:52;;;;;;;2.70;1.48;;;2.20;99.90;;;;;;5015094;28;20055;-60
2024/01/15 10:54:19;;;;;;;1.67;0.80;;;2.30;99.90;;;;;;5033087;28;20477;-60
2024/01/15 10:56:46;;;;;;;1.25;1.05;;;2.30;99.90;;;;;;5015166;28;20044;-59
2024/01/15 10:59:13;;;;;;;2.67;1.30;;;2.90;99.90;;;;;;5015181;28;20045;-70
2024/01/15 11:01:39;;;;;;;1.73;1.17;;;2.70;99.90;;;;;;5033055;28;20037;-69
2024/01/15 11:04:05;;;;;;;0.90;0.75;;;2.20;99.90;;;;;;5032785;28;20041;-69
2024/01/15 11:06:45;;;;;;;2.03;1.17;;;2.20;99.90;;;;;;5015497;28;20114;-70
2024/01/15 11:09:12;;;;;;;1.02;0.82;;;2.30;99.90;;;;;;5015209;28;20072;-70
2024/01/15 11:11:45;;;;;;;1.13;0.90;;;2.50;99.90;;;;;;5032021;28;20074;-70
2024/01/15 11:14:10;;;;;;;1.23;0.77;;;2.50;99.90;;;;;;5032729;28;20045;-70
2024/01/15 11:16:56;;;;;;;1.50;0.95;;;2.40;99.90;;;;;;5032995;28;20085;-70
2024/01/15 11:19:22;;;;;;;1.13;0.80;;;2.30;99.90;;;;;;5033107;28;20091;-70
2024/01/15 11:21:47;;;;;;;0.73;0.70;;;2.20;99.90;;;;;;5033083;28;20045;-70
2024/01/15 11:24:35;;;;;;;1.63;1.10;;;2.80;99.90;;;;;;5015435;28;20041;-70
2024/01/15 11:27:00;;;;;;;1.55;0.95;;;2.10;99.90;;;;;;5014813;28;20056;-70
2024/01/15 11:29:31;;;;;;;1.33;1.00;;;2.50;99.90;;;;;;5014616;28;20500;-71
2024/01/15 11:32:04;;;;;;;1.85;0.77;;;2.40;99.90;;;;;;5032515;28;20044;-70
2024/01/15 11:34:54;;;;;;;1.15;0.75;;;2.30;99.90;;;;;;5031775;28;20053;-70
2024/01/15 11:37:20;;;;;;;0.80;0.70;;;2.20;99.90;;;;;;5014584;28;20432;-69
2024/01/15 11:39:46;;;;;;;0.90;0.60;;;2.20;99.90;;;;;;5032460;28;20145;-71
2024/01/15 11:42:13;;;;;;;0.80;0.65;;;2.60;99.90;;;;;;5014981;28;20500;-69
2024/01/15 11:44:40;;;;;;;0.65;0.50;;;1.90;99.90;;;;;;5032199;28;20085;-69
2024/01/15 11:47:08;;;;;;;0.50;0.50;;;2.10;99.90;;;;;;5032554;28;20041;-71
2024/01/15 11:50:04;;;;;;;0.77;0.60;;;2.00;99.90;;;;;;5014509;28;20046;-72
2024/01/15 11:52:35;;;;;;;0.60;0.60;;;2.10;99.90;;;;;;5032423;28;20100;-72
2024/01/15 11:55:21;;;;;;;1.92;0.90;;;2.10;99.90;;;;;;5032373;28;20128;-73
2024/01/15 11:57:50;;;;;;;0.68;0.68;;;2.10;99.90;;;;;;5032834;28;20049;-71
2024/01/15 12:00:16;;;;;;;0.60;0.60;;;2.50;99.90;;;;;;5014658;28;20057;-69
2024/01/15 12:02:43;;;;;;;0.50;0.50;;;2.10;99.90;;;;;;5032453;28;20084;-72
2024/01/15 12:05:12;;;;;;;1.02;0.70;;;2.00;99.90;;;;;;5014717;28;20094;-71
2024/01/15 12:07:57;;;;;;;0.80;0.80;;;2.10;99.90;;;;;;5014713;28;20052;-70
2024/01/15 12:10:23;;;;;;;0.60;0.60;;;2.10;99.90;;;;;;5014303;28;20045;-60
2024/01/15 12:13:14;;;;;;;0.65;0.65;;;2.70;99.90;;;;;;5014307;28;20402;-61
2024/01/15 12:15:42;;;;;;;0.73;0.70;;;2.10;99.90;;;;;;5032197;28;20400;-60
2024/01/15 12:18:09;;;;;;;0.52;0.52;;;1.70;99.90;;;;;;5032228;28;20041;-59
2024/01/15 12:20:34;;;;;;;0.40;0.40;;;1.80;99.90;;;;;;5031887;28;20103;-59
2024/01/15 12:23:03;;;;;;;0.57;0.57;;;1.70;99.90;;;;;;5032165;28;20046;-59
2024/01/15 12:25:30;;;;;;;0.77;0.50;;;1.30;99.90;;;;;;5014158;28;20050;-59
2024/01/15 12:27:56;;;;;;;0.60;0.50;;;1.50;99.90;;;;;;5032053;28;20029;-59
2024/01/15 12:30:22;;;;;;;0.50;0.50;;;2.20;99.90;;;;;;5032102;28;20489;-59
2024/01/15 12:32:48;;;;;;;0.60;0.60;;;1.30;99.90;;;;;;5034996;28;20073;-60
2024/01/15 12:35:20;;;;;;;2.25;0.70;;;1.40;99.90;;;;;;5035152;28;20075;-59
2024/01/15 12:37:54;;;;;;;0.50;0.50;;;2.20;99.90;;;;;;5035445;28;20049;-59
2024/01/15 12:40:21;;;;;;;0.82;0.82;;;1.40;99.90;;;;;;5035362;28;20473;-60
2024/01/15 12:42:46;;;;;;;0.80;0.63;;;1.50;99.90;;;;;;5017629;28;20049;-61
2024/01/15 12:45:13;;;;;;;0.60;0.60;;;1.50;99.90;;;;;;5035512;28;20048;-59
2024/01/15 12:47:39;;;;;;;2.33;0.93;;;1.80;99.90;;;;;;5017469;28;20107;-59
2024/01/15 12:50:12;;;;;;;0.50;0.50;;;1.90;99.90;;;;;;5017574;28;20046;-69
2024/01/15 12:52:40;;;;;;;0.52;0.50;;;1.60;99.90;;;;;;5035166;28;20073;-69
2024/01/15 12:55:09;;;;;;;0.75;0.63;;;1.50;99.90;;;;;;5035197;28;20038;-62